Foothill Ranch, California
Current Conditions -  °F | °C
As of 7:53 PM on Sunday 25 Jan 2015 (Local Time) from KSNA Reporting Station
Broken Clouds Broken Clouds  
Wind Chill: 71°   Ceiling: 25000
Heat Index: 71°   Visibility: 10mi
Dew Point: 30°   Wind: 5mph
Humidity: 22%   Direction: 50°NE
Pressure: 30.02"   Gusts: NA
Location:  33.62°N, 117.69°W
Report Text: KSNA 260353Z 05004KT 10SM SCT170 BKN250 22/M01 A3002 RMK AO2 SLP165 T02171011 $
Loading
Personal Weather Stations






























Interactive Weather Map New forecast layout! Learn more

10-Day Weather Forecast

Advertisements
Track Severe Weather on mobile